Whitehouse Station, NJ

12:43 AM EST on November 27, 2014 (GMT -0500)
Morristown Municipal | Change Station
CLOSE
Current Station
Airport
Location: Morristown,
Elevation: 187 ft
Nearby Weather Stations

Elev 187 ft 40.80 °N, 74.42 °W | Updated 8 minutes ago

Snow
Snow
37 °F
Feels Like 37 °F
N
0
Wind Variable Wind from North
Gusts 8 mph

Today
High -- | Low -- °F
--% Chance of Precip.
Yesterday
High -- | Low -- °F
Precip. -- in
6:59 AM 4:33 PM
Waxing Crescent, 26% visible
Pressure 29.86 in
Visibility 10.0 miles
Clouds
Dew Point 32 °F
Humidity 81%
Rainfall 0.00 in
Snow Depth Not available.
UV Not available.
Pollen .10 out of 12
Air Quality Not available.
Flu Activity Not available.
METAR KMMU 270535Z AUTO 00000KT 10SM 03/00 A2986 RMK AO2

More Conditions Fewer Conditions

Pressure 29.86 in
Visibility 10.0 miles
Clouds
Dew Point 32 °F
Humidity 81%
Rainfall 0.00 in
Snow Depth Not available.
UV Not available.
Pollen .10 out of 12
Air Quality Not available.
Flu Activity Not available.
METAR KMMU 270535Z AUTO 00000KT 10SM 03/00 A2986 RMK AO2

More Conditions Fewer Conditions

10-Day Weather Forecast

Almanac

Astronomy

Nov. 27, 2014 Rise Set
Actual Time
Civil Twilight
Nautical Twilight
Astronomical Twilight
Moon
Length of Visible Light
Length of Day
Tomorrow will be .
, % of the Moon is Illuminated

Today's Extremes

State Highs State Lows

Community

WunderPhotos

Upload Photos

1,773,961 photos uploaded!

WunderBlogs® & News

Nearby

Air Quality

  Air Quality AQ Index Pollutant
Not available.

Snow Depth

Station Depth Elevation

Earthquake Activity

City Distance Mag. Time & Date
Minimum magnitude displayed is 2.5.

Coastal Water Temperatures

Place Temperature

Nearby Weather Stations